Impacts METAR Board
IDs:

KHYI - San Marcos Muni, TX, US

Updated at: 0100 UTC 01 Nov 2020
Potential Impact None Slight Moderate High
Time 31/13Z 31/14Z 31/15Z 31/16Z 31/17Z 31/18Z 31/19Z 31/20Z 31/21Z 31/22Z 31/23Z 01/00Z 01/01Z
Temp37 45 55 63 68 72 74 76 77 77 75 70 61
Dewpt33 37 40 44 40 39 39 39 38 38 39 39 36
Altim30.23 30.24 30.25 30.25 30.23 30.21 30.17 30.13 30.11 30.10 30.10 30.11 30.14
VIS10 10 10 10 10 10 10 10 10 10 10 10 10
CIG-- -- -- -- -- -- -- -- -- -- -- -- --
CoverCLRCLRCLRCLRCLRCLRCLRCLRCLRCLRCLRCLRCLR
FltCatVFRVFRVFRVFRVFRVFRVFRVFRVFRVFRVFRVFRVFR
WX--------------------------
WDir33031002202002002000210200210160140
WSpd3 3 0 7 8 6 7 4 8 8 6 3 3
WGst-- -- -- -- -- -- -- -- -- -- -- -- --
Raw hourly METARs
KHYI 311256Z 33003KT 10SM CLR 03/01 A3023 RMK AO2 SLP234 T00280006
KHYI 311356Z 31003KT 10SM CLR 07/03 A3024 RMK AO2 SLP237 T00720028
KHYI 311456Z 00000KT 10SM CLR 13/04 A3025 RMK AO2 SLP242 T01280044 53010
KHYI 311556Z 22007KT 10SM CLR 17/07 A3025 RMK AO2 SLP239 T01720067
KHYI 311656Z 20008KT 10SM CLR 20/04 A3023 RMK AO2 SLP233 T02000044
KHYI 311756Z 20006KT 10SM CLR 22/04 A3021 RMK AO2 SLP225 T02220039 10222 20028 58016
KHYI 311856Z 20007KT 10SM CLR 23/04 A3017 RMK AO2 SLP209 T02330039
KHYI 311956Z VRB04KT 10SM CLR 24/04 A3013 RMK AO2 SLP198 T02440039
KHYI 312056Z 21008KT 10SM CLR 25/03 A3011 RMK AO2 SLP191 T02500033 56032
KHYI 312156Z 20008KT 10SM CLR 25/03 A3010 RMK AO2 SLP186 T02500033
KHYI 312256Z 21006KT 10SM CLR 24/04 A3010 RMK AO2 SLP187 T02390039
KHYI 312356Z AUTO 16003KT 10SM CLR 21/04 A3011 RMK AO2 SLP193 T02110039 10256 20211 55000
KHYI 010056Z AUTO 14003KT 10SM CLR 16/02 A3014 RMK AO2 SLP201 T01610022